Time;durP1;ratioP1;P1;durP2;ratioP2;P2;SDS_P1;SDS_P2;PMS_P1;PMS_P2;Temp;Humidity;BMP_temperature;BMP_pressure;BME280_temperature;BME280_humidity;BME280_pressure;Samples;Min_cycle;Max_cycle;Signal;HPM_P1;HPM_P2
2023/12/25 00:01:57;;;;;;;1.42;0.50;;;13.70;99.90;;;;;;6307933;28;20079;-79
2023/12/25 00:04:59;;;;;;;2.78;0.60;;;13.70;99.90;;;;;;6312509;28;20063;-80
2023/12/25 00:08:01;;;;;;;1.50;0.60;;;13.60;99.90;;;;;;6321577;28;20136;-81
2023/12/25 00:11:02;;;;;;;1.88;0.55;;;13.60;99.90;;;;;;6320444;28;20075;-80
2023/12/25 00:14:04;;;;;;;1.85;0.50;;;13.60;99.90;;;;;;6314690;28;20051;-81
2023/12/25 00:17:05;;;;;;;1.98;0.60;;;13.60;99.90;;;;;;6321080;28;20577;-81
2023/12/25 00:20:07;;;;;;;1.10;0.40;;;13.60;99.90;;;;;;6321292;28;20059;-80
2023/12/25 00:23:09;;;;;;;1.33;0.52;;;13.70;99.90;;;;;;6301812;28;20057;-80
2023/12/25 00:26:10;;;;;;;1.95;0.50;;;13.60;99.90;;;;;;6302992;28;20040;-81
2023/12/25 00:29:12;;;;;;;1.30;0.50;;;13.60;99.90;;;;;;6304556;28;20043;-81
2023/12/25 00:32:14;;;;;;;1.13;0.40;;;13.70;99.90;;;;;;6318560;28;20514;-79
2023/12/25 00:35:15;;;;;;;1.10;0.40;;;13.60;99.90;;;;;;6316370;28;20048;-81
2023/12/25 00:38:17;;;;;;;1.20;0.50;;;13.60;99.90;;;;;;6321337;28;20055;-81
2023/12/25 00:41:19;;;;;;;0.65;0.40;;;13.70;99.90;;;;;;6321141;28;20052;-80
2023/12/25 00:44:21;;;;;;;2.35;0.50;;;13.70;99.90;;;;;;6309983;28;20190;-81
2023/12/25 00:47:23;;;;;;;2.00;0.40;;;13.70;99.90;;;;;;6313975;28;20048;-80
2023/12/25 00:50:24;;;;;;;0.90;0.43;;;13.70;99.90;;;;;;6300519;28;20059;-80
2023/12/25 00:53:26;;;;;;;3.85;0.75;;;13.70;99.90;;;;;;6320851;28;20074;-80
2023/12/25 00:56:28;;;;;;;2.50;0.50;;;13.60;99.90;;;;;;6306785;28;20059;-80
2023/12/25 00:59:29;;;;;;;2.90;0.75;;;13.70;99.90;;;;;;6314021;28;20178;-81
2023/12/25 01:02:31;;;;;;;1.55;0.60;;;13.60;99.90;;;;;;6307392;28;20197;-80
2023/12/25 01:05:33;;;;;;;1.38;0.55;;;13.70;99.90;;;;;;6315758;28;20495;-81
2023/12/25 01:08:35;;;;;;;1.75;0.60;;;13.70;99.90;;;;;;6319889;28;20550;-82
2023/12/25 01:11:36;;;;;;;1.60;0.50;;;13.60;99.90;;;;;;6320349;28;20109;-81
2023/12/25 01:14:42;;;;;;;1.70;0.50;;;13.70;99.90;;;;;;6312794;28;20106;-81
2023/12/25 01:17:44;;;;;;;2.72;0.75;;;13.60;99.90;;;;;;6318647;28;20071;-81
2023/12/25 01:20:46;;;;;;;2.90;0.55;;;13.70;99.90;;;;;;6312156;28;20142;-81
2023/12/25 01:23:48;;;;;;;2.10;0.50;;;13.70;99.90;;;;;;6319322;28;20055;-80
2023/12/25 01:26:50;;;;;;;2.95;0.68;;;13.60;99.90;;;;;;6308054;28;20056;-80
2023/12/25 01:29:51;;;;;;;1.42;0.50;;;13.70;99.90;;;;;;6312425;28;20048;-81
2023/12/25 01:32:53;;;;;;;4.20;0.70;;;13.70;99.90;;;;;;6315369;28;20040;-80
2023/12/25 01:35:55;;;;;;;2.42;0.70;;;13.70;99.90;;;;;;6310455;28;20048;-79
2023/12/25 01:38:56;;;;;;;2.17;0.57;;;13.60;99.90;;;;;;6316623;28;20056;-79
2023/12/25 01:41:58;;;;;;;2.40;0.60;;;13.70;99.90;;;;;;6318018;28;20867;-79
2023/12/25 01:45:00;;;;;;;2.45;0.82;;;13.60;99.90;;;;;;6300237;28;20059;-80
2023/12/25 01:48:02;;;;;;;2.80;0.80;;;13.70;99.90;;;;;;6313907;28;20055;-81
2023/12/25 01:51:04;;;;;;;2.30;0.60;;;13.60;99.90;;;;;;6319785;28;20260;-80
2023/12/25 01:54:07;;;;;;;2.28;0.60;;;13.60;99.90;;;;;;6315297;28;20067;-80
2023/12/25 01:57:09;;;;;;;1.77;0.60;;;13.60;99.90;;;;;;6318247;28;20044;-80
2023/12/25 02:00:10;;;;;;;2.05;0.50;;;13.50;99.90;;;;;;6308217;28;20060;-81
2023/12/25 02:03:12;;;;;;;1.17;0.50;;;13.40;99.90;;;;;;6317743;28;20062;-81
2023/12/25 02:06:14;;;;;;;2.03;0.60;;;13.30;99.90;;;;;;6319217;28;20051;-82
2023/12/25 02:09:15;;;;;;;2.28;0.57;;;13.20;99.90;;;;;;6318765;28;20058;-81
2023/12/25 02:12:17;;;;;;;2.22;0.60;;;13.20;99.90;;;;;;6313060;28;20040;-81
2023/12/25 02:15:19;;;;;;;1.80;0.50;;;13.20;99.90;;;;;;6316344;28;20506;-79
2023/12/25 02:18:20;;;;;;;3.78;0.63;;;13.20;99.90;;;;;;6300580;28;20110;-80
2023/12/25 02:21:22;;;;;;;3.30;0.60;;;13.10;99.90;;;;;;6318431;28;20423;-80
2023/12/25 02:24:23;;;;;;;3.72;0.73;;;13.20;99.90;;;;;;6300493;28;20056;-80
2023/12/25 02:27:25;;;;;;;1.83;0.77;;;13.20;99.90;;;;;;6318495;28;20051;-80
2023/12/25 02:30:27;;;;;;;3.05;0.52;;;13.10;99.90;;;;;;6293626;28;20095;-81
2023/12/25 02:33:29;;;;;;;1.85;0.57;;;13.10;99.90;;;;;;6313312;28;20051;-80
2023/12/25 02:36:30;;;;;;;1.35;0.50;;;13.10;99.90;;;;;;6297273;28;20066;-79
2023/12/25 02:39:32;;;;;;;2.10;0.57;;;13.10;99.90;;;;;;6299324;28;20639;-80
2023/12/25 02:42:34;;;;;;;1.60;0.52;;;13.20;99.90;;;;;;6314113;28;20059;-79
2023/12/25 02:45:35;;;;;;;1.52;0.40;;;13.20;99.90;;;;;;6310208;28;20170;-79
2023/12/25 02:48:37;;;;;;;1.80;0.60;;;13.20;99.90;;;;;;6316178;28;20044;-81
2023/12/25 02:51:39;;;;;;;3.60;0.60;;;13.30;99.90;;;;;;6318465;28;20048;-80
2023/12/25 02:54:40;;;;;;;1.88;0.60;;;13.30;99.90;;;;;;6305894;28;20048;-80
2023/12/25 02:57:42;;;;;;;2.42;0.47;;;13.30;99.90;;;;;;6317313;28;20517;-80
2023/12/25 03:00:43;;;;;;;1.55;0.50;;;13.40;99.90;;;;;;6293961;28;20044;-80
2023/12/25 03:03:45;;;;;;;2.78;0.57;;;13.30;99.90;;;;;;6290052;28;20582;-79
2023/12/25 03:06:47;;;;;;;1.45;0.40;;;13.40;99.90;;;;;;6317799;28;20487;-80
2023/12/25 03:09:49;;;;;;;1.15;0.40;;;13.40;99.90;;;;;;6317303;28;20413;-80
2023/12/25 03:12:50;;;;;;;1.92;0.50;;;13.40;99.90;;;;;;6312791;28;20059;-82
2023/12/25 03:15:52;;;;;;;0.80;0.30;;;13.40;99.90;;;;;;6296735;28;20059;-81
2023/12/25 03:18:53;;;;;;;2.75;0.60;;;13.40;99.90;;;;;;6298188;28;20060;-80
2023/12/25 03:21:55;;;;;;;1.73;0.40;;;13.40;99.90;;;;;;6313218;28;20429;-80
2023/12/25 03:24:57;;;;;;;1.38;0.40;;;13.50;99.90;;;;;;6306621;28;20462;-80
2023/12/25 03:27:59;;;;;;;0.98;0.40;;;13.50;99.90;;;;;;6316816;28;20044;-80
2023/12/25 03:31:00;;;;;;;0.93;0.40;;;13.50;99.90;;;;;;6295730;28;20063;-80
2023/12/25 03:34:02;;;;;;;1.25;0.40;;;13.50;99.90;;;;;;6310187;28;20714;-80
2023/12/25 03:37:04;;;;;;;2.67;0.50;;;13.50;99.90;;;;;;6317896;28;20056;-80
2023/12/25 03:40:06;;;;;;;2.00;0.60;;;13.50;99.90;;;;;;6307879;28;20392;-80
2023/12/25 03:43:07;;;;;;;1.95;0.50;;;13.50;99.90;;;;;;6313248;28;20052;-80
2023/12/25 03:46:09;;;;;;;1.30;0.40;;;13.50;99.90;;;;;;6294280;28;20411;-80
2023/12/25 03:49:11;;;;;;;1.65;0.50;;;13.50;99.90;;;;;;6316053;28;20194;-79
2023/12/25 03:52:12;;;;;;;1.17;0.40;;;13.50;99.90;;;;;;6317141;28;20056;-80
2023/12/25 03:55:14;;;;;;;1.10;0.40;;;13.50;99.90;;;;;;6307461;28;20048;-80
2023/12/25 03:58:15;;;;;;;1.08;0.40;;;13.50;99.90;;;;;;6309017;28;20055;-80
2023/12/25 04:01:17;;;;;;;1.08;0.40;;;13.50;99.90;;;;;;6316028;28;20102;-81
2023/12/25 04:04:19;;;;;;;1.33;0.40;;;13.40;99.90;;;;;;6309430;28;20079;-79
2023/12/25 04:07:20;;;;;;;1.83;0.40;;;13.40;99.90;;;;;;6317477;28;20091;-79
2023/12/25 04:10:22;;;;;;;1.95;0.50;;;13.40;99.90;;;;;;6287058;28;20057;-80
2023/12/25 04:13:24;;;;;;;2.38;0.50;;;13.40;99.90;;;;;;6279883;28;20449;-80
2023/12/25 04:16:25;;;;;;;0.88;0.30;;;13.40;99.90;;;;;;6293322;28;20048;-79
2023/12/25 04:19:27;;;;;;;2.28;0.43;;;13.40;99.90;;;;;;6300962;28;20059;-79
2023/12/25 04:22:28;;;;;;;1.35;0.40;;;13.40;99.90;;;;;;6301302;28;20048;-80
2023/12/25 04:25:30;;;;;;;0.73;0.30;;;13.30;99.90;;;;;;6306428;28;20052;-79
2023/12/25 04:28:32;;;;;;;2.17;0.40;;;13.30;99.90;;;;;;6308656;28;20047;-80
2023/12/25 04:31:33;;;;;;;1.45;0.52;;;13.30;99.90;;;;;;6317644;28;20132;-79
2023/12/25 04:34:35;;;;;;;1.50;0.40;;;13.30;99.90;;;;;;6316986;28;20055;-82
2023/12/25 04:37:37;;;;;;;2.85;0.50;;;13.30;99.90;;;;;;6287678;28;20060;-80
2023/12/25 04:40:38;;;;;;;0.90;0.38;;;13.30;99.90;;;;;;6321372;28;20074;-79
2023/12/25 04:43:40;;;;;;;1.10;0.40;;;13.20;99.90;;;;;;6301140;28;20060;-79
2023/12/25 04:46:42;;;;;;;1.65;0.47;;;13.20;99.90;;;;;;6324706;28;20052;-80
2023/12/25 04:49:44;;;;;;;1.23;0.40;;;13.30;99.90;;;;;;6321856;28;20048;-80
2023/12/25 04:52:45;;;;;;;0.75;0.40;;;13.30;99.90;;;;;;6316702;28;20052;-80
2023/12/25 04:55:47;;;;;;;2.08;0.50;;;13.30;99.90;;;;;;6320890;28;20090;-80
2023/12/25 04:58:49;;;;;;;0.52;0.40;;;13.30;99.90;;;;;;6319728;28;20056;-80
2023/12/25 05:01:51;;;;;;;1.92;0.40;;;13.30;99.90;;;;;;6317827;28;20193;-80
2023/12/25 05:04:53;;;;;;;1.70;0.40;;;13.30;99.90;;;;;;6299313;28;20067;-80
2023/12/25 05:07:54;;;;;;;0.93;0.40;;;13.30;99.90;;;;;;6296132;28;20788;-81
2023/12/25 05:10:56;;;;;;;1.15;0.40;;;13.30;99.90;;;;;;6319887;28;20063;-80
2023/12/25 05:13:58;;;;;;;1.27;0.45;;;13.20;99.90;;;;;;6306445;28;20048;-80
2023/12/25 05:16:59;;;;;;;0.75;0.30;;;13.20;99.90;;;;;;6269670;28;20049;-80
2023/12/25 05:20:01;;;;;;;2.38;0.47;;;13.10;99.90;;;;;;6313864;28;20063;-80
2023/12/25 05:23:03;;;;;;;0.77;0.30;;;13.10;99.90;;;;;;6307200;28;20071;-80
2023/12/25 05:26:04;;;;;;;1.38;0.40;;;13.10;99.90;;;;;;6319535;28;20048;-80
2023/12/25 05:29:06;;;;;;;0.40;0.22;;;13.00;99.90;;;;;;6316158;28;20044;-79
2023/12/25 05:32:07;;;;;;;0.90;0.35;;;13.00;99.90;;;;;;6319334;28;20059;-80
2023/12/25 05:35:09;;;;;;;1.30;0.40;;;13.00;99.90;;;;;;6307109;28;20044;-79
2023/12/25 05:38:11;;;;;;;0.95;0.40;;;12.90;99.90;;;;;;6313195;28;20432;-80
2023/12/25 05:41:12;;;;;;;1.40;0.40;;;12.80;99.90;;;;;;6298222;28;20082;-79
2023/12/25 05:44:14;;;;;;;1.08;0.30;;;12.80;99.90;;;;;;6295566;28;20059;-80
2023/12/25 05:47:15;;;;;;;1.65;0.40;;;12.80;99.90;;;;;;6318666;28;20052;-81
2023/12/25 05:50:18;;;;;;;1.98;0.47;;;12.80;99.90;;;;;;6300833;28;20080;-79
2023/12/25 05:53:19;;;;;;;0.90;0.40;;;12.80;99.90;;;;;;6307770;28;20055;-80
2023/12/25 05:56:21;;;;;;;1.58;0.45;;;12.90;99.90;;;;;;6313100;28;20048;-80
2023/12/25 05:59:23;;;;;;;1.33;0.35;;;12.90;99.90;;;;;;6309895;28;20051;-80
2023/12/25 06:02:24;;;;;;;1.08;0.45;;;12.90;99.90;;;;;;6311063;28;20511;-79
2023/12/25 06:05:26;;;;;;;0.95;0.40;;;12.90;99.90;;;;;;6301128;28;20056;-80
2023/12/25 06:08:28;;;;;;;0.80;0.40;;;12.90;99.90;;;;;;6318664;28;20052;-79
2023/12/25 06:11:30;;;;;;;1.25;0.40;;;13.00;99.90;;;;;;6318292;28;20069;-80
2023/12/25 06:14:32;;;;;;;1.67;0.40;;;13.00;99.90;;;;;;6316014;28;20113;-79
2023/12/25 06:17:35;;;;;;;1.77;0.30;;;13.00;99.90;;;;;;6310388;28;20048;-79
2023/12/25 06:20:37;;;;;;;1.17;0.40;;;13.10;99.90;;;;;;6308897;28;20103;-80
2023/12/25 06:23:39;;;;;;;1.20;0.60;;;13.00;99.90;;;;;;6295789;28;20059;-80
2023/12/25 06:26:40;;;;;;;1.63;0.40;;;13.10;99.90;;;;;;6305611;28;20139;-79
2023/12/25 06:29:42;;;;;;;0.88;0.38;;;13.10;99.90;;;;;;6314679;28;20052;-79
2023/12/25 06:32:44;;;;;;;0.95;0.40;;;13.10;99.90;;;;;;6317412;28;20509;-80
2023/12/25 06:35:45;;;;;;;1.42;0.40;;;13.10;99.90;;;;;;6318361;28;20059;-80
2023/12/25 06:38:47;;;;;;;1.05;0.38;;;13.10;99.90;;;;;;6316434;28;20048;-79
2023/12/25 06:41:49;;;;;;;1.85;0.43;;;13.10;99.90;;;;;;6318047;28;20056;-80
2023/12/25 06:44:51;;;;;;;1.00;0.30;;;13.10;99.90;;;;;;6295082;28;20734;-80
2023/12/25 06:47:52;;;;;;;1.35;0.30;;;13.10;99.90;;;;;;6310968;28;20044;-79
2023/12/25 06:50:54;;;;;;;1.58;0.40;;;13.00;99.90;;;;;;6317072;28;20047;-79
2023/12/25 06:53:56;;;;;;;1.02;0.40;;;12.90;99.90;;;;;;6316571;28;20059;-79
2023/12/25 06:56:58;;;;;;;1.85;0.40;;;12.90;99.90;;;;;;6311375;28;20136;-80
2023/12/25 06:59:59;;;;;;;0.77;0.40;;;12.80;99.90;;;;;;6317172;28;20048;-80
2023/12/25 07:03:01;;;;;;;1.48;0.50;;;12.80;99.90;;;;;;6311278;28;20767;-81
2023/12/25 07:06:03;;;;;;;1.13;0.40;;;12.80;99.90;;;;;;6301118;28;20059;-79
2023/12/25 07:09:05;;;;;;;2.20;0.40;;;12.80;99.90;;;;;;6317152;28;20050;-80
2023/12/25 07:12:07;;;;;;;1.58;0.40;;;12.80;99.90;;;;;;6293382;28;20206;-80
2023/12/25 07:15:09;;;;;;;1.60;0.40;;;12.80;99.90;;;;;;6312415;28;20643;-81
2023/12/25 07:18:10;;;;;;;1.90;0.40;;;12.80;99.90;;;;;;6317438;28;20056;-81
2023/12/25 07:21:12;;;;;;;1.38;0.35;;;12.90;99.90;;;;;;6316724;28;20051;-80
2023/12/25 07:24:14;;;;;;;1.27;0.40;;;12.90;99.90;;;;;;6305666;28;20491;-80
2023/12/25 07:27:15;;;;;;;1.35;0.40;;;13.00;99.90;;;;;;6293039;28;20508;-80
2023/12/25 07:30:17;;;;;;;0.75;0.30;;;13.00;99.90;;;;;;6302877;28;20052;-80
2023/12/25 07:33:19;;;;;;;1.25;0.40;;;13.10;99.90;;;;;;6299866;28;20056;-79
2023/12/25 07:36:20;;;;;;;1.33;0.40;;;13.10;99.90;;;;;;6317434;28;20932;-80
2023/12/25 07:39:22;;;;;;;1.83;0.38;;;13.20;99.90;;;;;;6317267;28;21017;-80
2023/12/25 07:42:23;;;;;;;0.43;0.30;;;13.20;99.90;;;;;;6293012;28;20055;-80
2023/12/25 07:45:25;;;;;;;2.72;0.40;;;13.20;99.90;;;;;;6318258;28;20051;-79
2023/12/25 07:48:27;;;;;;;1.10;0.40;;;13.20;99.90;;;;;;6297624;28;20052;-79
2023/12/25 07:51:28;;;;;;;0.77;0.40;;;13.20;99.90;;;;;;6316901;28;20063;-80
2023/12/25 07:54:31;;;;;;;2.63;0.43;;;13.30;99.90;;;;;;6307188;28;20127;-80
2023/12/25 07:57:32;;;;;;;0.80;0.40;;;13.30;99.90;;;;;;6321630;28;20146;-80
2023/12/25 08:00:34;;;;;;;1.85;0.50;;;13.30;99.90;;;;;;6304714;28;20062;-82
2023/12/25 08:03:35;;;;;;;2.13;0.40;;;13.30;99.90;;;;;;6309252;28;20063;-81
2023/12/25 08:06:37;;;;;;;1.48;0.40;;;13.20;99.90;;;;;;6307838;28;20178;-80
2023/12/25 08:09:39;;;;;;;1.52;0.40;;;13.20;99.90;;;;;;6322741;28;20040;-81
2023/12/25 08:12:43;;;;;;;0.95;0.40;;;13.10;99.90;;;;;;6311592;28;20055;-82
2023/12/25 08:15:44;;;;;;;3.95;0.60;;;13.10;99.90;;;;;;6297081;28;20041;-84
2023/12/25 08:18:46;;;;;;;3.47;0.60;;;12.90;99.90;;;;;;6297927;28;20052;-83
2023/12/25 08:21:48;;;;;;;1.65;0.57;;;12.90;99.90;;;;;;6320930;28;20637;-83
2023/12/25 08:24:51;;;;;;;2.92;0.73;;;12.70;99.90;;;;;;6317429;28;20094;-81
2023/12/25 08:27:53;;;;;;;3.35;0.55;;;12.70;99.90;;;;;;6318009;28;20051;-83
2023/12/25 08:30:55;;;;;;;1.63;0.60;;;12.70;99.90;;;;;;6299277;28;20407;-82
2023/12/25 08:33:57;;;;;;;1.52;0.40;;;12.70;99.90;;;;;;6317977;28;20487;-82
2023/12/25 08:36:58;;;;;;;2.80;0.77;;;12.70;99.90;;;;;;6308094;28;20499;-83
2023/12/25 08:40:00;;;;;;;2.20;0.50;;;12.60;99.90;;;;;;6318684;28;20051;-82
2023/12/25 08:43:02;;;;;;;1.80;0.50;;;12.60;99.90;;;;;;6313930;28;20059;-79
2023/12/25 08:46:03;;;;;;;2.15;0.60;;;12.60;99.90;;;;;;6316220;28;20052;-81
2023/12/25 08:49:05;;;;;;;2.50;0.52;;;12.60;99.90;;;;;;6320409;28;20083;-78
2023/12/25 08:52:07;;;;;;;1.83;0.60;;;12.60;99.90;;;;;;6320213;28;20092;-82
2023/12/25 08:55:09;;;;;;;1.55;0.60;;;12.60;99.90;;;;;;6295835;28;20047;-80
2023/12/25 08:58:10;;;;;;;1.65;0.55;;;12.60;99.90;;;;;;6320120;28;20086;-79
2023/12/25 09:01:12;;;;;;;1.30;0.40;;;12.60;99.90;;;;;;6316696;28;20051;-79
2023/12/25 09:04:14;;;;;;;1.83;0.60;;;12.60;99.90;;;;;;6303553;28;20059;-80
2023/12/25 09:07:16;;;;;;;2.58;0.50;;;12.60;99.90;;;;;;6320875;28;20058;-83
2023/12/25 09:10:18;;;;;;;1.80;0.60;;;12.60;99.90;;;;;;6302280;28;20048;-80
2023/12/25 09:13:19;;;;;;;2.35;0.50;;;12.60;99.90;;;;;;6320240;28;20044;-81
2023/12/25 09:16:21;;;;;;;1.10;0.50;;;12.60;99.90;;;;;;6318250;28;20074;-82
2023/12/25 09:19:22;;;;;;;1.55;0.65;;;12.60;99.90;;;;;;6320177;28;20048;-80
2023/12/25 09:22:27;;;;;;;0.90;0.40;;;12.70;99.90;;;;;;6320724;28;20519;-84
2023/12/25 09:25:28;;;;;;;1.10;0.50;;;12.70;99.90;;;;;;6317072;28;20044;-82
2023/12/25 09:28:30;;;;;;;1.58;0.50;;;12.70;99.90;;;;;;6311260;28;20384;-78
2023/12/25 09:31:32;;;;;;;2.65;0.73;;;12.70;99.90;;;;;;6319023;28;20082;-82
2023/12/25 09:34:33;;;;;;;1.08;0.50;;;12.70;99.90;;;;;;6319044;28;20052;-80
2023/12/25 09:37:54;;;;;;;1.35;0.50;;;12.70;99.90;;;;;;6295615;28;20091;-79
2023/12/25 09:40:56;;;;;;;0.82;0.40;;;12.70;99.90;;;;;;6319174;28;20063;-81
2023/12/25 09:44:00;;;;;;;1.50;0.50;;;12.80;99.90;;;;;;6319744;28;20133;-82
2023/12/25 09:47:03;;;;;;;3.17;0.50;;;12.80;99.90;;;;;;6306600;28;20045;-83
2023/12/25 09:50:05;;;;;;;1.35;0.57;;;12.80;99.90;;;;;;6307565;28;20110;-79
2023/12/25 09:53:06;;;;;;;3.08;0.57;;;12.80;99.90;;;;;;6315216;28;20058;-81
2023/12/25 09:56:08;;;;;;;2.60;0.77;;;12.80;99.90;;;;;;6320335;28;20048;-80
2023/12/25 09:59:09;;;;;;;1.88;0.60;;;12.80;99.90;;;;;;6313936;28;20059;-82
2023/12/25 10:02:11;;;;;;;2.60;0.50;;;12.90;99.90;;;;;;6318460;28;20060;-81
2023/12/25 10:05:13;;;;;;;1.92;0.55;;;13.00;99.90;;;;;;6319302;28;20130;-81
2023/12/25 10:08:14;;;;;;;6.85;0.93;;;12.90;99.90;;;;;;6293932;28;20052;-80
2023/12/25 10:11:16;;;;;;;3.85;0.73;;;12.90;99.90;;;;;;6320116;28;20411;-82
2023/12/25 10:14:17;;;;;;;5.25;0.90;;;12.80;99.90;;;;;;6316366;28;20059;-81
2023/12/25 10:17:19;;;;;;;4.88;1.00;;;12.90;99.90;;;;;;6297848;28;20056;-82
2023/12/25 10:20:21;;;;;;;5.47;1.10;;;12.90;99.90;;;;;;6318658;28;20048;-81
2023/12/25 10:23:22;;;;;;;4.72;0.90;;;12.90;99.90;;;;;;6319097;28;20166;-79
2023/12/25 10:26:24;;;;;;;5.57;1.00;;;12.90;99.90;;;;;;6319856;28;20048;-80
2023/12/25 10:29:26;;;;;;;6.35;1.10;;;12.90;99.90;;;;;;6306065;28;20125;-79
2023/12/25 10:32:27;;;;;;;5.07;1.08;;;12.90;99.90;;;;;;6317649;28;20550;-78
2023/12/25 10:35:29;;;;;;;4.38;0.77;;;13.00;99.90;;;;;;6304097;28;20055;-79
2023/12/25 10:38:38;;;;;;;3.78;0.85;;;13.00;99.90;;;;;;6310217;28;20074;-80
2023/12/25 10:41:42;;;;;;;2.42;0.80;;;13.00;99.90;;;;;;6318250;28;20558;-79
2023/12/25 10:44:44;;;;;;;4.50;0.90;;;13.00;99.90;;;;;;6313014;28;20048;-79
2023/12/25 10:47:46;;;;;;;4.38;0.80;;;13.00;99.90;;;;;;6318199;28;20048;-79
2023/12/25 10:50:48;;;;;;;6.25;1.10;;;13.00;99.90;;;;;;6294063;28;20267;-78
2023/12/25 10:53:50;;;;;;;4.50;0.90;;;13.00;99.90;;;;;;6313451;28;20051;-79
2023/12/25 10:56:53;;;;;;;4.32;0.80;;;13.00;99.90;;;;;;6293831;28;20052;-79
2023/12/25 10:59:55;;;;;;;4.22;0.82;;;13.00;99.90;;;;;;6311821;28;20052;-79
2023/12/25 11:02:56;;;;;;;4.25;1.00;;;13.00;99.90;;;;;;6306859;28;20093;-78
2023/12/25 11:05:58;;;;;;;5.32;1.00;;;12.90;99.90;;;;;;6318337;28;20145;-78
2023/12/25 11:09:00;;;;;;;6.43;1.02;;;12.80;99.90;;;;;;6299866;28;20059;-81
2023/12/25 11:12:02;;;;;;;4.18;1.20;;;12.80;99.90;;;;;;6315557;28;20052;-80
2023/12/25 11:15:04;;;;;;;3.35;0.90;;;12.90;99.90;;;;;;6302760;28;20055;-88
2023/12/25 11:18:09;;;;;;;7.18;1.00;;;12.90;99.90;;;;;;6300788;28;20143;-82
2023/12/25 11:21:12;;;;;;;5.05;1.10;;;12.90;99.90;;;;;;6324991;28;20245;-81
2023/12/25 11:24:13;;;;;;;6.43;1.10;;;12.90;99.90;;;;;;6308513;28;20056;-82
2023/12/25 11:27:17;;;;;;;5.93;1.38;;;13.00;99.90;;;;;;6319278;28;20048;-81
2023/12/25 11:30:18;;;;;;;5.65;1.10;;;13.10;99.90;;;;;;6308296;28;20048;-85
2023/12/25 11:33:20;;;;;;;5.90;0.90;;;13.10;99.90;;;;;;6326874;28;20052;-84
2023/12/25 11:36:22;;;;;;;4.50;1.10;;;13.10;99.90;;;;;;6311358;28;20139;-81
2023/12/25 11:39:23;;;;;;;5.10;1.00;;;13.20;99.90;;;;;;6317044;28;20426;-85
2023/12/25 11:42:25;;;;;;;5.88;1.15;;;13.20;99.90;;;;;;6303217;28;20447;-81
2023/12/25 11:45:27;;;;;;;4.10;1.00;;;13.20;99.90;;;;;;6325350;28;20056;-78
2023/12/25 11:48:28;;;;;;;4.63;1.00;;;13.20;99.90;;;;;;6304242;28;20048;-82
2023/12/25 11:51:31;;;;;;;3.70;1.00;;;13.30;99.90;;;;;;6309188;28;20056;-82
2023/12/25 11:54:33;;;;;;;6.50;1.33;;;13.30;99.90;;;;;;6328242;28;20056;-84
2023/12/25 11:57:35;;;;;;;2.95;0.82;;;13.30;99.90;;;;;;6326809;28;20063;-83
2023/12/25 12:00:36;;;;;;;6.25;1.10;;;13.40;99.90;;;;;;6326593;28;20059;-84
2023/12/25 12:03:38;;;;;;;4.57;0.90;;;13.30;99.90;;;;;;6301893;28;20114;-83
2023/12/25 12:06:40;;;;;;;4.10;0.90;;;13.30;99.90;;;;;;6309500;28;20054;-82
2023/12/25 12:09:41;;;;;;;4.47;1.00;;;13.30;99.90;;;;;;6309261;28;20502;-83
2023/12/25 12:12:43;;;;;;;6.22;1.00;;;13.40;99.90;;;;;;6327472;28;20056;-83
2023/12/25 12:15:45;;;;;;;3.78;1.08;;;13.30;99.90;;;;;;6327526;28;20055;-83
2023/12/25 12:18:46;;;;;;;6.40;1.00;;;13.40;99.90;;;;;;6301439;28;20423;-81
2023/12/25 12:21:48;;;;;;;3.53;0.82;;;13.30;99.90;;;;;;6326429;28;20142;-82
2023/12/25 12:24:51;;;;;;;4.07;1.17;;;13.40;99.90;;;;;;6309770;28;20051;-83
2023/12/25 12:27:52;;;;;;;4.75;0.90;;;13.30;99.90;;;;;;6303365;28;20045;-81
2023/12/25 12:30:54;;;;;;;3.90;1.10;;;13.30;99.90;;;;;;6340943;22;20096;-92
2023/12/25 12:33:56;;;;;;;4.40;1.08;;;13.20;99.90;;;;;;6308440;28;20495;-91
2023/12/25 12:37:05;;;;;;;4.78;1.10;;;13.10;99.90;;;;;;6298388;28;20057;-89
2023/12/25 12:40:06;;;;;;;4.28;1.10;;;12.90;99.90;;;;;;6306256;28;20064;-90
2023/12/25 12:43:08;;;;;;;3.75;0.98;;;12.90;99.90;;;;;;6288254;28;20051;-93
2023/12/25 12:46:10;;;;;;;4.75;1.10;;;12.70;99.90;;;;;;6316905;28;20078;-94
2023/12/25 12:49:12;;;;;;;4.43;1.10;;;12.70;99.90;;;;;;6316109;28;20048;-94
2023/12/25 12:52:14;;;;;;;2.35;0.98;;;12.60;99.90;;;;;;6308867;28;20064;-91
2023/12/25 12:55:17;;;;;;;4.93;1.27;;;12.70;99.90;;;;;;6323319;28;20048;-93
2023/12/25 12:58:19;;;;;;;4.53;1.27;;;12.70;99.90;;;;;;6317617;28;20056;-95
2023/12/25 13:01:23;;;;;;;4.38;1.20;;;12.70;99.90;;;;;;6300631;28;20045;-94
2023/12/25 13:04:25;;;;;;;3.50;1.30;;;12.70;99.90;;;;;;6345472;28;20048;-94
2023/12/25 13:07:27;;;;;;;5.32;1.50;;;12.70;99.90;;;;;;6301625;28;20043;-91
2023/12/25 13:10:29;;;;;;;3.63;1.30;;;12.80;99.90;;;;;;6339939;28;20406;-94
2023/12/25 13:13:32;;;;;;;3.60;1.75;;;12.80;99.90;;;;;;6303624;28;20507;-94
2023/12/25 13:16:34;;;;;;;4.03;1.35;;;12.80;99.90;;;;;;6294159;28;20056;-93
2023/12/25 13:19:36;;;;;;;2.95;1.10;;;12.90;99.90;;;;;;6321389;28;20052;-94
2023/12/25 13:22:40;;;;;;;3.60;1.25;;;12.80;99.90;;;;;;6320065;28;20043;-94
2023/12/25 13:25:42;;;;;;;3.80;1.42;;;12.80;99.90;;;;;;6309488;28;20106;-94
2023/12/25 13:28:44;;;;;;;3.00;0.98;;;12.90;99.90;;;;;;6309925;28;20058;-92
2023/12/25 13:31:46;;;;;;;3.85;1.10;;;12.90;99.90;;;;;;6334332;28;20048;-95
2023/12/25 13:34:48;;;;;;;3.38;0.90;;;12.80;99.90;;;;;;6296294;28;20044;-94
2023/12/25 13:37:51;;;;;;;2.60;0.90;;;12.80;99.90;;;;;;6318642;28;20048;-93
2023/12/25 13:40:54;;;;;;;2.58;0.80;;;12.70;99.90;;;;;;6294161;28;20059;-94
2023/12/25 13:43:56;;;;;;;3.10;0.82;;;12.70;99.90;;;;;;6305223;28;20055;-94
2023/12/25 13:46:58;;;;;;;2.53;1.00;;;12.70;99.90;;;;;;6315614;28;20090;-93
2023/12/25 13:50:02;;;;;;;3.13;0.82;;;12.70;99.90;;;;;;6318242;22;20056;-84
2023/12/25 13:53:05;;;;;;;3.45;1.15;;;12.70;99.90;;;;;;6319290;28;20575;-83
2023/12/25 13:56:07;;;;;;;3.53;1.23;;;12.70;99.90;;;;;;6310055;22;20051;-85
2023/12/25 13:59:09;;;;;;;4.00;1.27;;;12.70;99.90;;;;;;6299797;28;20056;-86
2023/12/25 14:02:10;;;;;;;2.55;1.10;;;12.80;99.90;;;;;;6319817;28;20103;-85
2023/12/25 14:05:12;;;;;;;2.60;1.00;;;12.80;99.90;;;;;;6320347;28;20066;-86
2023/12/25 14:08:14;;;;;;;3.33;1.20;;;12.80;99.90;;;;;;6301510;28;20518;-87
2023/12/25 14:11:15;;;;;;;3.92;1.00;;;12.70;99.90;;;;;;6319801;28;20048;-86
2023/12/25 14:14:17;;;;;;;2.80;1.10;;;12.60;99.90;;;;;;6292519;28;20060;-86
2023/12/25 14:17:19;;;;;;;3.25;1.00;;;12.60;99.90;;;;;;6278355;28;20058;-86
2023/12/25 14:20:20;;;;;;;2.67;1.05;;;12.50;99.90;;;;;;6319695;28;20052;-86
2023/12/25 14:23:22;;;;;;;2.85;1.00;;;12.50;99.90;;;;;;6276773;28;20057;-87
2023/12/25 14:26:24;;;;;;;2.47;0.90;;;12.50;99.90;;;;;;6300349;28;20128;-88
2023/12/25 14:29:25;;;;;;;3.47;1.10;;;12.40;99.90;;;;;;6315852;28;20410;-85
2023/12/25 14:32:27;;;;;;;2.45;0.90;;;12.40;99.90;;;;;;6294259;28;20533;-84
2023/12/25 14:35:29;;;;;;;4.60;1.10;;;12.30;99.90;;;;;;6300425;28;20052;-85
2023/12/25 14:38:31;;;;;;;4.55;1.10;;;12.30;99.90;;;;;;6294379;28;20456;-85
2023/12/25 14:41:33;;;;;;;4.80;1.20;;;12.30;99.90;;;;;;6319253;28;20132;-84
2023/12/25 14:44:34;;;;;;;4.40;1.15;;;12.30;99.90;;;;;;6274690;28;20045;-84
2023/12/25 14:47:37;;;;;;;3.72;1.30;;;12.30;99.90;;;;;;6299868;28;20052;-84
2023/12/25 14:50:39;;;;;;;3.88;1.13;;;12.30;99.90;;;;;;6294866;28;20053;-85
2023/12/25 14:53:41;;;;;;;4.40;1.35;;;12.20;99.90;;;;;;6317561;28;20351;-84
2023/12/25 14:56:43;;;;;;;3.65;1.30;;;12.20;99.90;;;;;;6273907;28;20067;-84
2023/12/25 14:59:45;;;;;;;5.60;1.70;;;12.20;99.90;;;;;;6298156;28;20051;-83
2023/12/25 15:02:46;;;;;;;5.85;1.70;;;12.20;99.90;;;;;;6318558;28;20186;-83
2023/12/25 15:05:48;;;;;;;5.75;2.03;;;12.20;99.90;;;;;;6300404;28;20499;-84
2023/12/25 15:08:50;;;;;;;3.28;1.65;;;12.20;99.90;;;;;;6318807;28;20066;-83
2023/12/25 15:11:52;;;;;;;5.00;1.88;;;12.30;99.90;;;;;;6300356;28;20052;-84
2023/12/25 15:14:53;;;;;;;4.43;1.48;;;12.30;99.90;;;;;;6274768;28;20056;-84
2023/12/25 15:17:55;;;;;;;3.63;1.80;;;12.30;99.90;;;;;;6299951;28;20673;-84
2023/12/25 15:20:57;;;;;;;6.00;2.00;;;12.30;99.90;;;;;;6275911;28;20193;-84
2023/12/25 15:23:59;;;;;;;3.90;1.73;;;12.30;99.90;;;;;;6299741;28;20068;-84
2023/12/25 15:27:01;;;;;;;5.03;1.90;;;12.30;99.90;;;;;;6292099;28;20055;-85
2023/12/25 15:30:02;;;;;;;5.40;2.30;;;12.30;99.90;;;;;;6317928;28;20068;-84
2023/12/25 15:33:04;;;;;;;3.15;1.33;;;12.30;99.90;;;;;;6293626;28;20418;-84
2023/12/25 15:36:06;;;;;;;4.22;1.35;;;12.30;99.90;;;;;;6317754;28;20048;-86
2023/12/25 15:39:09;;;;;;;3.20;1.10;;;12.30;99.90;;;;;;6275437;28;20049;-84
2023/12/25 15:42:12;;;;;;;3.53;1.30;;;12.30;99.90;;;;;;6317911;28;20044;-85
2023/12/25 15:45:14;;;;;;;4.15;0.93;;;12.20;99.90;;;;;;6273968;28;20052;-85
2023/12/25 15:48:19;;;;;;;2.67;1.00;;;12.20;99.90;;;;;;6300431;28;20055;-85